sensor_id;sensor_type;location;lat;lon;timestamp;pressure;altitude;pressure_sealevel;temperature;humidity
18749;BME280;9503;53.560;10.246;2022-09-06T00:00:41;101509.16;;;17.40;70.03
18749;BME280;9503;53.560;10.246;2022-09-06T00:03:07;101509.59;;;17.27;70.33
18749;BME280;9503;53.560;10.246;2022-09-06T00:05:35;101499.28;;;17.29;70.11
18749;BME280;9503;53.560;10.246;2022-09-06T00:08:03;101499.16;;;17.26;70.60
18749;BME280;9503;53.560;10.246;2022-09-06T00:10:31;101493.06;;;17.24;70.41
18749;BME280;9503;53.560;10.246;2022-09-06T00:13:00;101481.72;;;17.20;70.62
18749;BME280;9503;53.560;10.246;2022-09-06T00:15:27;101485.19;;;17.21;70.54
18749;BME280;9503;53.560;10.246;2022-09-06T00:17:56;101489.53;;;17.22;70.42
18749;BME280;9503;53.560;10.246;2022-09-06T00:20:23;101489.78;;;17.29;70.52
18749;BME280;9503;53.560;10.246;2022-09-06T00:22:51;101477.81;;;17.07;71.10
18749;BME280;9503;53.560;10.246;2022-09-06T00:25:18;101488.97;;;17.05;70.72
18749;BME280;9503;53.560;10.246;2022-09-06T00:27:44;101490.84;;;17.09;71.16
18749;BME280;9503;53.560;10.246;2022-09-06T00:30:11;101477.88;;;17.09;70.86
18749;BME280;9503;53.560;10.246;2022-09-06T00:32:38;101478.03;;;17.13;70.84
18749;BME280;9503;53.560;10.246;2022-09-06T00:35:07;101486.44;;;17.06;71.14
18749;BME280;9503;53.560;10.246;2022-09-06T00:37:33;101482.22;;;17.10;70.43
18749;BME280;9503;53.560;10.246;2022-09-06T00:40:00;101480.72;;;17.17;70.87
18749;BME280;9503;53.560;10.246;2022-09-06T00:42:26;101476.38;;;17.16;70.62
18749;BME280;9503;53.560;10.246;2022-09-06T00:44:53;101475.69;;;17.21;70.37
18749;BME280;9503;53.560;10.246;2022-09-06T00:47:19;101480.47;;;17.09;70.34
18749;BME280;9503;53.560;10.246;2022-09-06T00:49:48;101476.50;;;17.19;70.14
18749;BME280;9503;53.560;10.246;2022-09-06T00:52:19;101477.81;;;17.07;70.44
18749;BME280;9503;53.560;10.246;2022-09-06T00:54:46;101478.53;;;17.03;70.28
18749;BME280;9503;53.560;10.246;2022-09-06T00:57:14;101471.66;;;17.04;70.50
18749;BME280;9503;53.560;10.246;2022-09-06T00:59:42;101475.06;;;17.03;70.37
18749;BME280;9503;53.560;10.246;2022-09-06T01:02:10;101472.13;;;17.18;70.21
18749;BME280;9503;53.560;10.246;2022-09-06T01:04:39;101466.88;;;17.16;70.17
18749;BME280;9503;53.560;10.246;2022-09-06T01:07:15;101470.34;;;17.17;69.61
18749;BME280;9503;53.560;10.246;2022-09-06T01:09:56;101463.78;;;17.01;70.28
18749;BME280;9503;53.560;10.246;2022-09-06T01:12:32;101462.28;;;17.07;69.81
18749;BME280;9503;53.560;10.246;2022-09-06T01:15:12;101463.06;;;17.05;70.44
18749;BME280;9503;53.560;10.246;2022-09-06T01:17:48;101466.34;;;16.99;70.26
18749;BME280;9503;53.560;10.246;2022-09-06T01:20:31;101466.06;;;16.92;70.29
18749;BME280;9503;53.560;10.246;2022-09-06T01:26:22;101467.56;;;16.85;70.03
18749;BME280;9503;53.560;10.246;2022-09-06T01:28:56;101461.25;;;17.02;69.71
18749;BME280;9503;53.560;10.246;2022-09-06T01:31:26;101463.09;;;16.81;70.23
18749;BME280;9503;53.560;10.246;2022-09-06T01:34:11;101463.09;;;16.81;70.31
18749;BME280;9503;53.560;10.246;2022-09-06T01:36:45;101458.88;;;16.83;70.13
18749;BME280;9503;53.560;10.246;2022-09-06T01:39:19;101471.09;;;16.87;70.25
18749;BME280;9503;53.560;10.246;2022-09-06T01:41:47;101463.94;;;16.80;70.43
18749;BME280;9503;53.560;10.246;2022-09-06T01:44:15;101463.66;;;16.72;70.36
18749;BME280;9503;53.560;10.246;2022-09-06T01:46:44;101469.09;;;16.80;69.70
18749;BME280;9503;53.560;10.246;2022-09-06T01:49:23;101467.09;;;16.71;69.57
18749;BME280;9503;53.560;10.246;2022-09-06T01:52:05;101464.06;;;16.83;69.20
18749;BME280;9503;53.560;10.246;2022-09-06T01:54:43;101456.53;;;16.67;69.91
18749;BME280;9503;53.560;10.246;2022-09-06T01:57:21;101466.50;;;16.80;69.05
18749;BME280;9503;53.560;10.246;2022-09-06T02:00:04;101469.31;;;16.86;68.98
18749;BME280;9503;53.560;10.246;2022-09-06T02:02:41;101464.44;;;16.70;69.27
18749;BME280;9503;53.560;10.246;2022-09-06T02:05:16;101460.97;;;16.69;68.71
18749;BME280;9503;53.560;10.246;2022-09-06T02:07:45;101457.13;;;16.82;68.08
18749;BME280;9503;53.560;10.246;2022-09-06T02:10:17;101460.63;;;16.84;68.29
18749;BME280;9503;53.560;10.246;2022-09-06T02:12:48;101448.28;;;16.77;68.20
18749;BME280;9503;53.560;10.246;2022-09-06T02:15:22;101455.31;;;16.81;68.42
18749;BME280;9503;53.560;10.246;2022-09-06T02:17:54;101449.97;;;16.75;67.96
18749;BME280;9503;53.560;10.246;2022-09-06T02:20:25;101450.66;;;16.71;67.83
18749;BME280;9503;53.560;10.246;2022-09-06T02:22:55;101446.19;;;16.91;67.60
18749;BME280;9503;53.560;10.246;2022-09-06T02:25:25;101452.75;;;16.81;67.70
18749;BME280;9503;53.560;10.246;2022-09-06T02:27:54;101443.88;;;16.74;66.96
18749;BME280;9503;53.560;10.246;2022-09-06T02:30:22;101449.00;;;16.73;66.87
18749;BME280;9503;53.560;10.246;2022-09-06T02:32:54;101442.50;;;16.84;66.88
18749;BME280;9503;53.560;10.246;2022-09-06T02:35:21;101441.28;;;16.74;66.60
18749;BME280;9503;53.560;10.246;2022-09-06T02:37:48;101439.03;;;16.83;65.99
18749;BME280;9503;53.560;10.246;2022-09-06T02:40:16;101438.66;;;16.73;66.41
18749;BME280;9503;53.560;10.246;2022-09-06T02:42:42;101444.53;;;16.69;66.00
18749;BME280;9503;53.560;10.246;2022-09-06T02:45:09;101447.78;;;16.87;65.47
18749;BME280;9503;53.560;10.246;2022-09-06T02:47:37;101441.03;;;16.92;65.23
18749;BME280;9503;53.560;10.246;2022-09-06T02:50:04;101438.78;;;16.76;65.52
18749;BME280;9503;53.560;10.246;2022-09-06T02:52:32;101437.94;;;16.77;65.49
18749;BME280;9503;53.560;10.246;2022-09-06T02:54:58;101433.06;;;16.86;65.37
18749;BME280;9503;53.560;10.246;2022-09-06T02:57:25;101434.31;;;16.72;65.66
18749;BME280;9503;53.560;10.246;2022-09-06T02:59:51;101435.00;;;16.68;66.27
18749;BME280;9503;53.560;10.246;2022-09-06T03:02:18;101424.56;;;16.66;64.90
18749;BME280;9503;53.560;10.246;2022-09-06T03:04:46;101426.09;;;16.83;64.61
18749;BME280;9503;53.560;10.246;2022-09-06T03:07:12;101431.41;;;16.64;65.07
18749;BME280;9503;53.560;10.246;2022-09-06T03:09:39;101419.75;;;16.75;64.61
18749;BME280;9503;53.560;10.246;2022-09-06T03:12:06;101420.44;;;16.70;64.59
18749;BME280;9503;53.560;10.246;2022-09-06T03:14:33;101422.28;;;16.74;64.52
18749;BME280;9503;53.560;10.246;2022-09-06T03:17:01;101420.47;;;16.71;64.51
18749;BME280;9503;53.560;10.246;2022-09-06T03:19:27;101416.28;;;16.75;64.25
18749;BME280;9503;53.560;10.246;2022-09-06T03:21:55;101414.69;;;16.78;64.12
18749;BME280;9503;53.560;10.246;2022-09-06T03:24:22;101410.50;;;16.82;63.79
18749;BME280;9503;53.560;10.246;2022-09-06T03:26:48;101420.88;;;16.59;63.81
18749;BME280;9503;53.560;10.246;2022-09-06T03:29:16;101415.16;;;16.68;63.54
18749;BME280;9503;53.560;10.246;2022-09-06T03:31:42;101409.19;;;16.69;63.01
18749;BME280;9503;53.560;10.246;2022-09-06T03:34:09;101401.25;;;16.90;62.72
18749;BME280;9503;53.560;10.246;2022-09-06T03:36:35;101403.06;;;16.67;62.53
18749;BME280;9503;53.560;10.246;2022-09-06T03:39:03;101401.34;;;16.93;62.81
18749;BME280;9503;53.560;10.246;2022-09-06T03:41:31;101402.22;;;16.94;61.98
18749;BME280;9503;53.560;10.246;2022-09-06T03:43:58;101407.94;;;16.83;62.16
18749;BME280;9503;53.560;10.246;2022-09-06T03:46:25;101405.69;;;16.69;62.39
18749;BME280;9503;53.560;10.246;2022-09-06T03:48:54;101411.91;;;16.74;62.13
18749;BME280;9503;53.560;10.246;2022-09-06T03:51:21;101405.53;;;16.64;62.08
18749;BME280;9503;53.560;10.246;2022-09-06T03:53:48;101408.22;;;16.67;61.69
18749;BME280;9503;53.560;10.246;2022-09-06T03:56:15;101417.06;;;16.72;61.83
18749;BME280;9503;53.560;10.246;2022-09-06T03:58:42;101415.09;;;16.67;61.24
18749;BME280;9503;53.560;10.246;2022-09-06T04:01:10;101413.25;;;16.63;61.60
18749;BME280;9503;53.560;10.246;2022-09-06T04:03:37;101417.84;;;16.70;61.12
18749;BME280;9503;53.560;10.246;2022-09-06T04:06:05;101417.88;;;16.71;61.61
18749;BME280;9503;53.560;10.246;2022-09-06T04:08:33;101405.53;;;16.64;61.29
18749;BME280;9503;53.560;10.246;2022-09-06T04:11:02;101413.34;;;16.66;61.78
18749;BME280;9503;53.560;10.246;2022-09-06T04:13:32;101413.19;;;16.61;61.53
18749;BME280;9503;53.560;10.246;2022-09-06T04:15:59;101416.31;;;16.52;61.84
18749;BME280;9503;53.560;10.246;2022-09-06T04:18:25;101413.84;;;16.55;61.23
18749;BME280;9503;53.560;10.246;2022-09-06T04:20:53;101414.50;;;16.50;61.37
18749;BME280;9503;53.560;10.246;2022-09-06T04:23:21;101403.56;;;16.33;62.06
18749;BME280;9503;53.560;10.246;2022-09-06T04:25:50;101409.63;;;16.34;62.11
18749;BME280;9503;53.560;10.246;2022-09-06T04:28:17;101406.59;;;16.45;61.75
18749;BME280;9503;53.560;10.246;2022-09-06T04:30:51;101409.50;;;16.54;60.84
18749;BME280;9503;53.560;10.246;2022-09-06T04:33:18;101411.66;;;16.42;61.50
18749;BME280;9503;53.560;10.246;2022-09-06T04:35:47;101417.94;;;16.49;61.32
18749;BME280;9503;53.560;10.246;2022-09-06T04:38:14;101412.41;;;16.38;61.69
18749;BME280;9503;53.560;10.246;2022-09-06T04:40:40;101411.78;;;16.21;62.01
18749;BME280;9503;53.560;10.246;2022-09-06T04:43:07;101413.69;;;16.27;61.98
18749;BME280;9503;53.560;10.246;2022-09-06T04:45:33;101411.13;;;16.27;61.68
18749;BME280;9503;53.560;10.246;2022-09-06T04:48:02;101406.94;;;16.30;61.42
18749;BME280;9503;53.560;10.246;2022-09-06T04:50:28;101393.94;;;16.29;61.29
18749;BME280;9503;53.560;10.246;2022-09-06T04:52:55;101396.16;;;16.18;61.50
18749;BME280;9503;53.560;10.246;2022-09-06T04:55:21;101393.59;;;16.20;61.87
18749;BME280;9503;53.560;10.246;2022-09-06T04:57:48;101389.91;;;16.37;61.25
18749;BME280;9503;53.560;10.246;2022-09-06T05:00:15;101384.84;;;16.40;61.63
18749;BME280;9503;53.560;10.246;2022-09-06T05:02:41;101395.69;;;16.30;61.31
18749;BME280;9503;53.560;10.246;2022-09-06T05:05:11;101389.03;;;16.37;61.55
18749;BME280;9503;53.560;10.246;2022-09-06T05:07:37;101399.50;;;16.40;61.25
18749;BME280;9503;53.560;10.246;2022-09-06T05:10:04;101389.25;;;16.19;61.22
18749;BME280;9503;53.560;10.246;2022-09-06T05:12:30;101391.19;;;16.24;61.64
18749;BME280;9503;53.560;10.246;2022-09-06T05:14:57;101392.75;;;16.45;60.89
18749;BME280;9503;53.560;10.246;2022-09-06T05:17:23;101394.13;;;16.59;60.89
18749;BME280;9503;53.560;10.246;2022-09-06T05:19:50;101394.88;;;16.31;60.76
18749;BME280;9503;53.560;10.246;2022-09-06T05:22:18;101402.22;;;16.44;60.56
18749;BME280;9503;53.560;10.246;2022-09-06T05:24:45;101407.00;;;16.32;61.24
18749;BME280;9503;53.560;10.246;2022-09-06T05:27:12;101406.69;;;16.48;60.84
18749;BME280;9503;53.560;10.246;2022-09-06T05:29:38;101405.38;;;16.36;61.17
18749;BME280;9503;53.560;10.246;2022-09-06T05:32:05;101408.03;;;16.61;60.88
18749;BME280;9503;53.560;10.246;2022-09-06T05:34:31;101412.22;;;16.34;60.89
18749;BME280;9503;53.560;10.246;2022-09-06T05:36:58;101413.59;;;16.48;61.13
18749;BME280;9503;53.560;10.246;2022-09-06T05:39:26;101412.19;;;16.57;60.55
18749;BME280;9503;53.560;10.246;2022-09-06T05:41:53;101413.41;;;16.43;60.96
18749;BME280;9503;53.560;10.246;2022-09-06T05:44:19;101417.69;;;16.91;59.65
18749;BME280;9503;53.560;10.246;2022-09-06T05:46:46;101412.38;;;16.62;59.74
18749;BME280;9503;53.560;10.246;2022-09-06T05:49:12;101416.53;;;16.58;60.39
18749;BME280;9503;53.560;10.246;2022-09-06T05:51:40;101413.88;;;16.81;59.94
18749;BME280;9503;53.560;10.246;2022-09-06T05:54:09;101416.56;;;16.82;60.71
18749;BME280;9503;53.560;10.246;2022-09-06T05:56:37;101420.69;;;16.53;60.36
18749;BME280;9503;53.560;10.246;2022-09-06T05:59:04;101412.59;;;16.94;60.41
18749;BME280;9503;53.560;10.246;2022-09-06T06:01:31;101411.00;;;16.72;60.45
18749;BME280;9503;53.560;10.246;2022-09-06T06:03:59;101419.19;;;16.84;60.17
18749;BME280;9503;53.560;10.246;2022-09-06T06:06:28;101404.97;;;16.73;60.55
18749;BME280;9503;53.560;10.246;2022-09-06T06:08:55;101404.34;;;16.80;60.28
18749;BME280;9503;53.560;10.246;2022-09-06T06:11:23;101407.91;;;16.82;60.44
18749;BME280;9503;53.560;10.246;2022-09-06T06:13:51;101402.28;;;16.95;60.27
18749;BME280;9503;53.560;10.246;2022-09-06T06:16:19;101399.81;;;16.98;60.26
18749;BME280;9503;53.560;10.246;2022-09-06T06:18:47;101399.00;;;17.01;60.52
18749;BME280;9503;53.560;10.246;2022-09-06T06:21:15;101399.06;;;17.02;59.81
18749;BME280;9503;53.560;10.246;2022-09-06T06:23:43;101401.47;;;17.23;59.92
18749;BME280;9503;53.560;10.246;2022-09-06T06:26:11;101390.91;;;17.44;59.16
18749;BME280;9503;53.560;10.246;2022-09-06T06:28:38;101395.44;;;17.51;59.34
18749;BME280;9503;53.560;10.246;2022-09-06T06:31:09;101402.34;;;17.51;59.02
18749;BME280;9503;53.560;10.246;2022-09-06T06:33:36;101403.97;;;17.76;58.10
18749;BME280;9503;53.560;10.246;2022-09-06T06:36:05;101407.09;;;17.65;58.81
18749;BME280;9503;53.560;10.246;2022-09-06T06:38:33;101399.69;;;17.49;59.40
18749;BME280;9503;53.560;10.246;2022-09-06T06:41:00;101399.41;;;17.68;58.99
18749;BME280;9503;53.560;10.246;2022-09-06T06:43:27;101398.91;;;17.79;59.08
18749;BME280;9503;53.560;10.246;2022-09-06T06:45:54;101394.56;;;17.51;59.37
18749;BME280;9503;53.560;10.246;2022-09-06T06:48:22;101398.13;;;17.83;59.11
18749;BME280;9503;53.560;10.246;2022-09-06T06:50:48;101392.56;;;17.42;59.36
18749;BME280;9503;53.560;10.246;2022-09-06T06:53:15;101391.72;;;17.16;60.53
18749;BME280;9503;53.560;10.246;2022-09-06T06:55:45;101383.91;;;17.42;60.40
18749;BME280;9503;53.560;10.246;2022-09-06T06:58:12;101391.53;;;17.10;60.70
18749;BME280;9503;53.560;10.246;2022-09-06T07:00:39;101400.94;;;17.62;59.97
18749;BME280;9503;53.560;10.246;2022-09-06T07:03:06;101391.09;;;17.50;60.31
18749;BME280;9503;53.560;10.246;2022-09-06T07:05:34;101389.00;;;17.67;60.05
18749;BME280;9503;53.560;10.246;2022-09-06T07:08:02;101383.84;;;17.68;60.01
18749;BME280;9503;53.560;10.246;2022-09-06T07:10:29;101382.16;;;17.99;59.29
18749;BME280;9503;53.560;10.246;2022-09-06T07:12:56;101367.94;;;17.85;59.56
18749;BME280;9503;53.560;10.246;2022-09-06T07:15:22;101369.78;;;17.89;59.69
18749;BME280;9503;53.560;10.246;2022-09-06T07:17:49;101369.19;;;17.99;59.54
18749;BME280;9503;53.560;10.246;2022-09-06T07:20:17;101372.41;;;17.90;59.71
18749;BME280;9503;53.560;10.246;2022-09-06T07:22:46;101369.84;;;17.33;61.27
18749;BME280;9503;53.560;10.246;2022-09-06T07:25:13;101375.09;;;17.65;60.67
18749;BME280;9503;53.560;10.246;2022-09-06T07:27:40;101371.53;;;17.61;60.20
18749;BME280;9503;53.560;10.246;2022-09-06T07:30:10;101381.59;;;17.78;60.79
18749;BME280;9503;53.560;10.246;2022-09-06T07:32:41;101376.38;;;17.78;60.32
18749;BME280;9503;53.560;10.246;2022-09-06T07:35:08;101369.78;;;17.89;60.13
18749;BME280;9503;53.560;10.246;2022-09-06T07:37:36;101381.06;;;18.21;59.64
18749;BME280;9503;53.560;10.246;2022-09-06T07:40:05;101380.69;;;18.70;58.87
18749;BME280;9503;53.560;10.246;2022-09-06T07:42:31;101369.13;;;18.28;59.98
18749;BME280;9503;53.560;10.246;2022-09-06T07:44:58;101374.28;;;17.94;60.59
18749;BME280;9503;53.560;10.246;2022-09-06T07:47:24;101385.88;;;18.39;60.13
18749;BME280;9503;53.560;10.246;2022-09-06T07:49:51;101387.25;;;18.26;60.12
18749;BME280;9503;53.560;10.246;2022-09-06T07:52:18;101384.97;;;18.37;59.70
18749;BME280;9503;53.560;10.246;2022-09-06T07:54:45;101387.09;;;18.20;60.33
18749;BME280;9503;53.560;10.246;2022-09-06T07:57:12;101395.09;;;18.59;59.80
18749;BME280;9503;53.560;10.246;2022-09-06T07:59:39;101392.06;;;19.10;58.75
18749;BME280;9503;53.560;10.246;2022-09-06T08:02:05;101389.84;;;18.91;59.36
18749;BME280;9503;53.560;10.246;2022-09-06T08:04:32;101397.91;;;18.67;59.95
18749;BME280;9503;53.560;10.246;2022-09-06T08:06:59;101391.28;;;18.80;59.37
18749;BME280;9503;53.560;10.246;2022-09-06T08:09:27;101389.16;;;18.98;59.63
18749;BME280;9503;53.560;10.246;2022-09-06T08:11:55;101379.50;;;18.59;59.77
18749;BME280;9503;53.560;10.246;2022-09-06T08:14:23;101385.19;;;18.77;60.56
18749;BME280;9503;53.560;10.246;2022-09-06T08:16:52;101386.00;;;18.75;59.87
18749;BME280;9503;53.560;10.246;2022-09-06T08:19:18;101385.31;;;18.82;60.81
18749;BME280;9503;53.560;10.246;2022-09-06T08:21:45;101379.97;;;18.76;60.40
18749;BME280;9503;53.560;10.246;2022-09-06T08:24:11;101384.88;;;19.38;59.33
18749;BME280;9503;53.560;10.246;2022-09-06T08:26:38;101390.75;;;19.27;59.71
18749;BME280;9503;53.560;10.246;2022-09-06T08:29:07;101392.81;;;19.42;58.30
18749;BME280;9503;53.560;10.246;2022-09-06T08:31:37;101397.03;;;19.37;59.19
18749;BME280;9503;53.560;10.246;2022-09-06T08:34:03;101390.69;;;19.24;59.63
18749;BME280;9503;53.560;10.246;2022-09-06T08:36:31;101389.25;;;19.39;60.05
18749;BME280;9503;53.560;10.246;2022-09-06T08:38:58;101395.50;;;19.84;58.22
18749;BME280;9503;53.560;10.246;2022-09-06T08:41:28;101403.38;;;20.31;57.67
18749;BME280;9503;53.560;10.246;2022-09-06T08:43:58;101398.50;;;20.04;58.31
18749;BME280;9503;53.560;10.246;2022-09-06T08:46:31;101409.25;;;20.65;57.17
18749;BME280;9503;53.560;10.246;2022-09-06T08:49:00;101413.34;;;20.51;57.13
18749;BME280;9503;53.560;10.246;2022-09-06T08:51:46;101410.94;;;20.19;57.85
18749;BME280;9503;53.560;10.246;2022-09-06T08:54:20;101409.16;;;19.74;58.57
18749;BME280;9503;53.560;10.246;2022-09-06T08:57:03;101399.44;;;20.06;58.77
18749;BME280;9503;53.560;10.246;2022-09-06T08:59:36;101395.97;;;19.67;59.65
18749;BME280;9503;53.560;10.246;2022-09-06T09:02:10;101399.59;;;20.15;58.76
18749;BME280;9503;53.560;10.246;2022-09-06T09:04:41;101390.75;;;20.06;58.89
18749;BME280;9503;53.560;10.246;2022-09-06T09:09:57;101394.38;;;19.72;59.17
18749;BME280;9503;53.560;10.246;2022-09-06T09:12:26;101399.94;;;19.90;59.04
18749;BME280;9503;53.560;10.246;2022-09-06T09:14:59;101388.75;;;19.93;59.15
18749;BME280;9503;53.560;10.246;2022-09-06T09:17:28;101383.69;;;19.59;60.03
18749;BME280;9503;53.560;10.246;2022-09-06T09:19:57;101383.13;;;19.74;60.04
18749;BME280;9503;53.560;10.246;2022-09-06T09:22:24;101374.84;;;19.92;59.66
18749;BME280;9503;53.560;10.246;2022-09-06T09:24:52;101379.56;;;20.11;59.66
18749;BME280;9503;53.560;10.246;2022-09-06T09:27:20;101376.28;;;20.20;59.69
18749;BME280;9503;53.560;10.246;2022-09-06T09:30:07;101366.34;;;20.01;60.16
18749;BME280;9503;53.560;10.246;2022-09-06T09:32:35;101362.72;;;19.93;60.09
18749;BME280;9503;53.560;10.246;2022-09-06T09:35:21;101353.91;;;19.87;59.99
18749;BME280;9503;53.560;10.246;2022-09-06T09:37:56;101361.88;;;19.54;60.83
18749;BME280;9503;53.560;10.246;2022-09-06T09:40:31;101360.03;;;18.75;62.59
18749;BME280;9503;53.560;10.246;2022-09-06T09:43:10;101352.13;;;19.46;61.64
18749;BME280;9503;53.560;10.246;2022-09-06T09:45:38;101350.00;;;20.08;60.43
18749;BME280;9503;53.560;10.246;2022-09-06T09:48:17;101351.06;;;20.19;59.75
18749;BME280;9503;53.560;10.246;2022-09-06T09:50:46;101341.09;;;20.42;58.76
18749;BME280;9503;53.560;10.246;2022-09-06T09:53:15;101343.53;;;19.89;60.51
18749;BME280;9503;53.560;10.246;2022-09-06T09:55:42;101347.97;;;20.40;59.59
18749;BME280;9503;53.560;10.246;2022-09-06T09:58:19;101349.31;;;19.74;60.47
18749;BME280;9503;53.560;10.246;2022-09-06T10:00:49;101352.25;;;20.35;59.75
18749;BME280;9503;53.560;10.246;2022-09-06T10:03:34;101348.00;;;20.41;58.89
18749;BME280;9503;53.560;10.246;2022-09-06T10:06:01;101342.53;;;19.82;60.49
18749;BME280;9503;53.560;10.246;2022-09-06T10:08:30;101343.00;;;20.51;59.60
18749;BME280;9503;53.560;10.246;2022-09-06T10:10:58;101328.59;;;20.24;58.80
18749;BME280;9503;53.560;10.246;2022-09-06T10:13:26;101330.31;;;19.78;60.24
18749;BME280;9503;53.560;10.246;2022-09-06T10:15:55;101329.34;;;19.73;61.02
18749;BME280;9503;53.560;10.246;2022-09-06T10:18:29;101328.25;;;20.06;60.36
18749;BME280;9503;53.560;10.246;2022-09-06T10:20:58;101324.53;;;20.40;59.67
18749;BME280;9503;53.560;10.246;2022-09-06T10:23:36;101320.63;;;20.15;60.28
18749;BME280;9503;53.560;10.246;2022-09-06T10:26:08;101311.13;;;20.67;59.00
18749;BME280;9503;53.560;10.246;2022-09-06T10:28:37;101314.00;;;20.34;59.71
18749;BME280;9503;53.560;10.246;2022-09-06T10:34:13;101304.50;;;20.87;58.81
18749;BME280;9503;53.560;10.246;2022-09-06T10:36:47;101302.53;;;20.24;60.04
18749;BME280;9503;53.560;10.246;2022-09-06T10:39:24;101302.09;;;20.45;60.07
18749;BME280;9503;53.560;10.246;2022-09-06T10:42:01;101286.84;;;20.71;59.35
18749;BME280;9503;53.560;10.246;2022-09-06T10:44:47;101293.16;;;20.34;59.22
18749;BME280;9503;53.560;10.246;2022-09-06T10:47:20;101289.00;;;20.42;59.37
18749;BME280;9503;53.560;10.246;2022-09-06T10:49:53;101283.69;;;20.90;58.96
18749;BME280;9503;53.560;10.246;2022-09-06T10:52:24;101285.88;;;21.22;58.21
18749;BME280;9503;53.560;10.246;2022-09-06T10:54:56;101293.13;;;20.82;59.25
18749;BME280;9503;53.560;10.246;2022-09-06T10:57:31;101293.31;;;20.94;57.77
18749;BME280;9503;53.560;10.246;2022-09-06T11:00:03;101293.97;;;21.37;57.26
18749;BME280;9503;53.560;10.246;2022-09-06T11:02:39;101291.25;;;20.72;57.85
18749;BME280;9503;53.560;10.246;2022-09-06T11:05:10;101286.97;;;20.77;58.54
18749;BME280;9503;53.560;10.246;2022-09-06T11:07:40;101284.41;;;20.80;58.62
18749;BME280;9503;53.560;10.246;2022-09-06T11:10:15;101293.97;;;21.37;57.09
18749;BME280;9503;53.560;10.246;2022-09-06T11:12:48;101291.13;;;21.23;57.32
18749;BME280;9503;53.560;10.246;2022-09-06T11:15:18;101296.59;;;20.81;58.11
18749;BME280;9503;53.560;10.246;2022-09-06T11:17:51;101298.09;;;21.23;57.22
18749;BME280;9503;53.560;10.246;2022-09-06T11:20:23;101300.75;;;21.28;57.00
18749;BME280;9503;53.560;10.246;2022-09-06T11:26:12;101290.94;;;20.55;58.58
18749;BME280;9503;53.560;10.246;2022-09-06T11:28:47;101281.69;;;20.73;58.07
18749;BME280;9503;53.560;10.246;2022-09-06T11:31:23;101290.19;;;21.20;57.81
18749;BME280;9503;53.560;10.246;2022-09-06T11:34:01;101280.31;;;20.96;58.46
18749;BME280;9503;53.560;10.246;2022-09-06T11:36:34;101287.28;;;20.98;58.26
18749;BME280;9503;53.560;10.246;2022-09-06T11:39:03;101294.41;;;21.10;57.94
18749;BME280;9503;53.560;10.246;2022-09-06T11:41:34;101289.16;;;21.72;56.80
18749;BME280;9503;53.560;10.246;2022-09-06T11:44:03;101288.97;;;21.56;56.06
18749;BME280;9503;53.560;10.246;2022-09-06T11:46:57;101282.09;;;21.64;56.70
18749;BME280;9503;53.560;10.246;2022-09-06T11:49:38;101284.78;;;21.08;57.74
18749;BME280;9503;53.560;10.246;2022-09-06T11:55:14;101280.53;;;21.81;56.77
18749;BME280;9503;53.560;10.246;2022-09-06T11:57:44;101287.16;;;22.30;55.00
18749;BME280;9503;53.560;10.246;2022-09-06T12:00:19;101283.56;;;21.40;56.73
18749;BME280;9503;53.560;10.246;2022-09-06T12:02:48;101277.66;;;21.58;56.77
18749;BME280;9503;53.560;10.246;2022-09-06T12:05:22;101278.88;;;21.86;56.40
18749;BME280;9503;53.560;10.246;2022-09-06T12:08:26;101275.16;;;22.49;55.46
18749;BME280;9503;53.560;10.246;2022-09-06T12:11:20;101276.03;;;22.51;54.82
18749;BME280;9503;53.560;10.246;2022-09-06T12:13:55;101278.41;;;22.25;55.75
18749;BME280;9503;53.560;10.246;2022-09-06T12:16:23;101278.41;;;22.24;55.43
18749;BME280;9503;53.560;10.246;2022-09-06T12:19:00;101276.34;;;21.95;55.93
18749;BME280;9503;53.560;10.246;2022-09-06T12:21:43;101276.00;;;21.63;56.46
18749;BME280;9503;53.560;10.246;2022-09-06T12:27:13;101263.94;;;22.69;55.03
18749;BME280;9503;53.560;10.246;2022-09-06T12:29:49;101265.81;;;21.88;56.17
18749;BME280;9503;53.560;10.246;2022-09-06T12:32:24;101255.75;;;22.20;56.20
18749;BME280;9503;53.560;10.246;2022-09-06T12:34:54;101248.84;;;22.31;55.95
18749;BME280;9503;53.560;10.246;2022-09-06T12:37:33;101246.41;;;22.48;56.08
18749;BME280;9503;53.560;10.246;2022-09-06T12:40:03;101234.38;;;21.75;56.75
18749;BME280;9503;53.560;10.246;2022-09-06T12:42:33;101232.00;;;21.97;57.12
18749;BME280;9503;53.560;10.246;2022-09-06T12:45:09;101235.19;;;21.73;57.00
18749;BME280;9503;53.560;10.246;2022-09-06T12:47:36;101229.56;;;21.36;57.72
18749;BME280;9503;53.560;10.246;2022-09-06T12:50:11;101235.97;;;21.64;57.78
18749;BME280;9503;53.560;10.246;2022-09-06T12:52:47;101232.19;;;22.17;56.72
18749;BME280;9503;53.560;10.246;2022-09-06T12:55:19;101225.38;;;22.34;56.29
18749;BME280;9503;53.560;10.246;2022-09-06T12:57:47;101222.94;;;21.66;57.98
18749;BME280;9503;53.560;10.246;2022-09-06T13:00:16;101217.16;;;21.20;58.27
18749;BME280;9503;53.560;10.246;2022-09-06T13:02:51;101225.63;;;21.73;57.68
18749;BME280;9503;53.560;10.246;2022-09-06T13:05:20;101227.03;;;21.44;58.45
18749;BME280;9503;53.560;10.246;2022-09-06T13:07:49;101221.09;;;21.56;58.39
18749;BME280;9503;53.560;10.246;2022-09-06T13:10:20;101215.41;;;21.95;57.57
18749;BME280;9503;53.560;10.246;2022-09-06T13:12:49;101209.00;;;21.61;57.77
18749;BME280;9503;53.560;10.246;2022-09-06T13:15:20;101199.53;;;21.72;57.63
18749;BME280;9503;53.560;10.246;2022-09-06T13:17:51;101197.69;;;21.60;58.38
18749;BME280;9503;53.560;10.246;2022-09-06T13:20:24;101197.47;;;21.43;58.38
18749;BME280;9503;53.560;10.246;2022-09-06T13:22:52;101191.59;;;21.63;58.04